sensor_id;sensor_type;location;lat;lon;timestamp;P1;durP1;ratioP1;P2;durP2;ratioP2
74995;SDS011;63545;51.690;5.202;2023-04-25T00:02:20;9.37;;;3.30;;
74995;SDS011;63545;51.690;5.202;2023-04-25T00:04:45;21.43;;;4.00;;
74995;SDS011;63545;51.690;5.202;2023-04-25T00:07:11;12.52;;;3.30;;
74995;SDS011;63545;51.690;5.202;2023-04-25T00:09:36;13.23;;;3.27;;
74995;SDS011;63545;51.690;5.202;2023-04-25T00:12:01;16.43;;;3.73;;
74995;SDS011;63545;51.690;5.202;2023-04-25T00:14:27;14.63;;;3.97;;
74995;SDS011;63545;51.690;5.202;2023-04-25T00:16:52;11.48;;;2.92;;
74995;SDS011;63545;51.690;5.202;2023-04-25T00:19:19;17.50;;;4.07;;
74995;SDS011;63545;51.690;5.202;2023-04-25T00:21:44;11.88;;;3.95;;
74995;SDS011;63545;51.690;5.202;2023-04-25T00:24:11;14.77;;;3.70;;
74995;SDS011;63545;51.690;5.202;2023-04-25T00:26:36;15.23;;;4.20;;
74995;SDS011;63545;51.690;5.202;2023-04-25T00:29:02;9.60;;;3.53;;
74995;SDS011;63545;51.690;5.202;2023-04-25T00:31:27;18.80;;;4.32;;
74995;SDS011;63545;51.690;5.202;2023-04-25T00:33:54;17.60;;;3.97;;
74995;SDS011;63545;51.690;5.202;2023-04-25T00:36:19;15.38;;;3.92;;
74995;SDS011;63545;51.690;5.202;2023-04-25T00:38:44;9.90;;;3.50;;
74995;SDS011;63545;51.690;5.202;2023-04-25T00:41:10;12.50;;;3.97;;
74995;SDS011;63545;51.690;5.202;2023-04-25T00:43:36;14.00;;;4.00;;
74995;SDS011;63545;51.690;5.202;2023-04-25T00:46:01;14.40;;;4.00;;
74995;SDS011;63545;51.690;5.202;2023-04-25T00:48:27;15.63;;;4.17;;
74995;SDS011;63545;51.690;5.202;2023-04-25T00:50:53;16.27;;;4.30;;
74995;SDS011;63545;51.690;5.202;2023-04-25T00:53:20;21.67;;;4.37;;
74995;SDS011;63545;51.690;5.202;2023-04-25T00:55:46;16.75;;;3.95;;
74995;SDS011;63545;51.690;5.202;2023-04-25T00:58:11;20.63;;;4.20;;
74995;SDS011;63545;51.690;5.202;2023-04-25T01:00:36;13.23;;;4.00;;
74995;SDS011;63545;51.690;5.202;2023-04-25T01:03:02;19.42;;;4.05;;
74995;SDS011;63545;51.690;5.202;2023-04-25T01:05:28;19.27;;;4.60;;
74995;SDS011;63545;51.690;5.202;2023-04-25T01:07:54;13.68;;;4.10;;
74995;SDS011;63545;51.690;5.202;2023-04-25T01:10:19;20.10;;;4.93;;
74995;SDS011;63545;51.690;5.202;2023-04-25T01:12:45;15.73;;;4.57;;
74995;SDS011;63545;51.690;5.202;2023-04-25T01:15:10;20.30;;;4.70;;
74995;SDS011;63545;51.690;5.202;2023-04-25T01:17:35;19.43;;;5.10;;
74995;SDS011;63545;51.690;5.202;2023-04-25T01:20:03;20.98;;;4.70;;
74995;SDS011;63545;51.690;5.202;2023-04-25T01:22:32;18.45;;;5.43;;
74995;SDS011;63545;51.690;5.202;2023-04-25T01:24:58;20.13;;;4.47;;
74995;SDS011;63545;51.690;5.202;2023-04-25T01:27:24;16.53;;;4.27;;
74995;SDS011;63545;51.690;5.202;2023-04-25T01:29:50;17.17;;;4.40;;
74995;SDS011;63545;51.690;5.202;2023-04-25T01:32:16;20.63;;;4.50;;
74995;SDS011;63545;51.690;5.202;2023-04-25T01:34:41;27.27;;;5.05;;
74995;SDS011;63545;51.690;5.202;2023-04-25T01:37:07;16.23;;;4.40;;
74995;SDS011;63545;51.690;5.202;2023-04-25T01:39:32;17.33;;;5.03;;
74995;SDS011;63545;51.690;5.202;2023-04-25T01:41:58;22.17;;;4.25;;
74995;SDS011;63545;51.690;5.202;2023-04-25T01:44:24;20.77;;;4.43;;
74995;SDS011;63545;51.690;5.202;2023-04-25T01:46:50;15.00;;;4.38;;
74995;SDS011;63545;51.690;5.202;2023-04-25T01:49:15;19.07;;;4.70;;
74995;SDS011;63545;51.690;5.202;2023-04-25T01:51:41;18.67;;;4.45;;
74995;SDS011;63545;51.690;5.202;2023-04-25T01:54:07;29.70;;;4.43;;
74995;SDS011;63545;51.690;5.202;2023-04-25T01:56:33;23.98;;;5.13;;
74995;SDS011;63545;51.690;5.202;2023-04-25T01:59:02;19.30;;;4.40;;
74995;SDS011;63545;51.690;5.202;2023-04-25T02:01:28;22.30;;;3.47;;
74995;SDS011;63545;51.690;5.202;2023-04-25T02:03:53;19.87;;;3.77;;
74995;SDS011;63545;51.690;5.202;2023-04-25T02:06:18;22.67;;;4.80;;
74995;SDS011;63545;51.690;5.202;2023-04-25T02:08:44;20.97;;;4.50;;
74995;SDS011;63545;51.690;5.202;2023-04-25T02:11:09;18.77;;;4.40;;
74995;SDS011;63545;51.690;5.202;2023-04-25T02:13:34;18.97;;;3.93;;
74995;SDS011;63545;51.690;5.202;2023-04-25T02:16:00;20.87;;;4.20;;
74995;SDS011;63545;51.690;5.202;2023-04-25T02:18:25;22.37;;;4.60;;
74995;SDS011;63545;51.690;5.202;2023-04-25T02:20:51;20.50;;;4.50;;
74995;SDS011;63545;51.690;5.202;2023-04-25T02:23:16;22.47;;;4.60;;
74995;SDS011;63545;51.690;5.202;2023-04-25T02:25:43;17.40;;;4.60;;
74995;SDS011;63545;51.690;5.202;2023-04-25T02:28:09;21.57;;;4.63;;
74995;SDS011;63545;51.690;5.202;2023-04-25T02:30:35;17.75;;;4.20;;
74995;SDS011;63545;51.690;5.202;2023-04-25T02:33:00;19.73;;;4.60;;
74995;SDS011;63545;51.690;5.202;2023-04-25T02:35:26;23.27;;;4.80;;
74995;SDS011;63545;51.690;5.202;2023-04-25T02:37:51;25.67;;;4.60;;
74995;SDS011;63545;51.690;5.202;2023-04-25T02:40:17;22.88;;;6.15;;
74995;SDS011;63545;51.690;5.202;2023-04-25T02:42:42;24.83;;;4.73;;
74995;SDS011;63545;51.690;5.202;2023-04-25T02:45:08;20.73;;;4.50;;
74995;SDS011;63545;51.690;5.202;2023-04-25T02:47:33;26.38;;;5.20;;
74995;SDS011;63545;51.690;5.202;2023-04-25T02:49:59;30.07;;;5.00;;
74995;SDS011;63545;51.690;5.202;2023-04-25T02:52:24;21.30;;;4.90;;
74995;SDS011;63545;51.690;5.202;2023-04-25T02:54:50;21.08;;;4.47;;
74995;SDS011;63545;51.690;5.202;2023-04-25T02:57:15;29.67;;;4.53;;
74995;SDS011;63545;51.690;5.202;2023-04-25T02:59:41;18.43;;;4.37;;
74995;SDS011;63545;51.690;5.202;2023-04-25T03:02:06;20.47;;;4.00;;
74995;SDS011;63545;51.690;5.202;2023-04-25T03:04:31;19.00;;;4.67;;
74995;SDS011;63545;51.690;5.202;2023-04-25T03:06:58;20.70;;;4.15;;
74995;SDS011;63545;51.690;5.202;2023-04-25T03:09:23;23.57;;;5.37;;
74995;SDS011;63545;51.690;5.202;2023-04-25T03:11:49;21.37;;;4.87;;
74995;SDS011;63545;51.690;5.202;2023-04-25T03:14:14;18.00;;;4.82;;
74995;SDS011;63545;51.690;5.202;2023-04-25T03:16:40;15.40;;;4.27;;
74995;SDS011;63545;51.690;5.202;2023-04-25T03:19:05;19.43;;;4.10;;
74995;SDS011;63545;51.690;5.202;2023-04-25T03:21:31;24.50;;;4.80;;
74995;SDS011;63545;51.690;5.202;2023-04-25T03:23:58;20.52;;;4.45;;
74995;SDS011;63545;51.690;5.202;2023-04-25T03:26:24;23.83;;;4.77;;
74995;SDS011;63545;51.690;5.202;2023-04-25T03:28:49;22.13;;;4.70;;
74995;SDS011;63545;51.690;5.202;2023-04-25T03:31:15;26.70;;;5.43;;
74995;SDS011;63545;51.690;5.202;2023-04-25T03:33:40;17.20;;;4.37;;
74995;SDS011;63545;51.690;5.202;2023-04-25T03:36:05;23.03;;;5.10;;
74995;SDS011;63545;51.690;5.202;2023-04-25T03:38:31;24.63;;;5.18;;
74995;SDS011;63545;51.690;5.202;2023-04-25T03:40:56;20.83;;;4.27;;
74995;SDS011;63545;51.690;5.202;2023-04-25T03:43:22;18.03;;;4.57;;
74995;SDS011;63545;51.690;5.202;2023-04-25T03:45:47;17.87;;;4.87;;
74995;SDS011;63545;51.690;5.202;2023-04-25T03:48:13;20.70;;;4.30;;
74995;SDS011;63545;51.690;5.202;2023-04-25T03:50:38;14.60;;;4.10;;
74995;SDS011;63545;51.690;5.202;2023-04-25T03:53:03;11.43;;;3.80;;
74995;SDS011;63545;51.690;5.202;2023-04-25T03:55:29;16.73;;;4.30;;
74995;SDS011;63545;51.690;5.202;2023-04-25T03:57:54;14.60;;;4.60;;
74995;SDS011;63545;51.690;5.202;2023-04-25T04:00:19;16.83;;;4.20;;
74995;SDS011;63545;51.690;5.202;2023-04-25T04:02:45;18.60;;;4.10;;
74995;SDS011;63545;51.690;5.202;2023-04-25T04:05:10;20.50;;;4.33;;
74995;SDS011;63545;51.690;5.202;2023-04-25T04:07:36;21.87;;;4.63;;
74995;SDS011;63545;51.690;5.202;2023-04-25T04:10:06;17.75;;;4.85;;
74995;SDS011;63545;51.690;5.202;2023-04-25T04:12:32;17.63;;;4.15;;
74995;SDS011;63545;51.690;5.202;2023-04-25T04:14:58;14.97;;;4.03;;
74995;SDS011;63545;51.690;5.202;2023-04-25T04:17:23;18.37;;;4.83;;
74995;SDS011;63545;51.690;5.202;2023-04-25T04:19:48;21.53;;;5.23;;
74995;SDS011;63545;51.690;5.202;2023-04-25T04:22:14;16.08;;;4.45;;
74995;SDS011;63545;51.690;5.202;2023-04-25T04:24:40;18.40;;;4.85;;
74995;SDS011;63545;51.690;5.202;2023-04-25T04:27:08;18.77;;;4.20;;
74995;SDS011;63545;51.690;5.202;2023-04-25T04:29:34;16.80;;;4.57;;
74995;SDS011;63545;51.690;5.202;2023-04-25T04:31:59;17.03;;;4.60;;
74995;SDS011;63545;51.690;5.202;2023-04-25T04:34:26;19.05;;;4.47;;
74995;SDS011;63545;51.690;5.202;2023-04-25T04:36:52;17.17;;;4.63;;
74995;SDS011;63545;51.690;5.202;2023-04-25T04:39:17;16.77;;;5.10;;
74995;SDS011;63545;51.690;5.202;2023-04-25T04:41:42;27.30;;;4.90;;
74995;SDS011;63545;51.690;5.202;2023-04-25T04:44:08;16.27;;;5.47;;
74995;SDS011;63545;51.690;5.202;2023-04-25T04:46:33;15.98;;;4.65;;
74995;SDS011;63545;51.690;5.202;2023-04-25T04:49:04;23.27;;;4.43;;
74995;SDS011;63545;51.690;5.202;2023-04-25T04:51:29;19.25;;;5.28;;
74995;SDS011;63545;51.690;5.202;2023-04-25T04:53:56;21.35;;;4.28;;
74995;SDS011;63545;51.690;5.202;2023-04-25T04:56:23;18.33;;;4.15;;
74995;SDS011;63545;51.690;5.202;2023-04-25T04:58:50;17.92;;;4.38;;
74995;SDS011;63545;51.690;5.202;2023-04-25T05:01:16;15.73;;;4.33;;
74995;SDS011;63545;51.690;5.202;2023-04-25T05:03:41;20.67;;;4.57;;
74995;SDS011;63545;51.690;5.202;2023-04-25T05:06:06;17.50;;;4.67;;
74995;SDS011;63545;51.690;5.202;2023-04-25T05:08:33;13.90;;;4.75;;
74995;SDS011;63545;51.690;5.202;2023-04-25T05:10:59;16.40;;;3.90;;
74995;SDS011;63545;51.690;5.202;2023-04-25T05:13:24;18.98;;;4.82;;
74995;SDS011;63545;51.690;5.202;2023-04-25T05:15:49;15.73;;;4.63;;
74995;SDS011;63545;51.690;5.202;2023-04-25T05:18:15;16.87;;;4.70;;
74995;SDS011;63545;51.690;5.202;2023-04-25T05:20:40;25.03;;;5.40;;
74995;SDS011;63545;51.690;5.202;2023-04-25T05:23:05;16.83;;;4.53;;
74995;SDS011;63545;51.690;5.202;2023-04-25T05:25:31;12.20;;;4.17;;
74995;SDS011;63545;51.690;5.202;2023-04-25T05:27:56;15.98;;;4.03;;
74995;SDS011;63545;51.690;5.202;2023-04-25T05:30:22;16.40;;;3.97;;
74995;SDS011;63545;51.690;5.202;2023-04-25T05:32:47;12.37;;;3.77;;
74995;SDS011;63545;51.690;5.202;2023-04-25T05:35:13;20.87;;;5.13;;
74995;SDS011;63545;51.690;5.202;2023-04-25T05:37:38;17.27;;;4.00;;
74995;SDS011;63545;51.690;5.202;2023-04-25T05:40:03;17.90;;;3.70;;
74995;SDS011;63545;51.690;5.202;2023-04-25T05:42:31;13.90;;;3.90;;
74995;SDS011;63545;51.690;5.202;2023-04-25T05:44:57;12.30;;;3.78;;
74995;SDS011;63545;51.690;5.202;2023-04-25T05:47:22;14.57;;;3.53;;
74995;SDS011;63545;51.690;5.202;2023-04-25T05:49:47;15.93;;;3.47;;
74995;SDS011;63545;51.690;5.202;2023-04-25T05:52:13;9.37;;;3.03;;
74995;SDS011;63545;51.690;5.202;2023-04-25T05:54:40;22.13;;;3.67;;
74995;SDS011;63545;51.690;5.202;2023-04-25T05:57:05;12.93;;;3.03;;
74995;SDS011;63545;51.690;5.202;2023-04-25T05:59:31;11.52;;;2.78;;
74995;SDS011;63545;51.690;5.202;2023-04-25T06:01:56;12.97;;;3.43;;
74995;SDS011;63545;51.690;5.202;2023-04-25T06:04:21;12.07;;;3.33;;
74995;SDS011;63545;51.690;5.202;2023-04-25T06:06:47;11.57;;;3.03;;
74995;SDS011;63545;51.690;5.202;2023-04-25T06:09:12;13.80;;;2.83;;
74995;SDS011;63545;51.690;5.202;2023-04-25T06:11:37;12.70;;;3.67;;
74995;SDS011;63545;51.690;5.202;2023-04-25T06:14:03;12.57;;;3.13;;
74995;SDS011;63545;51.690;5.202;2023-04-25T06:16:28;12.63;;;3.00;;
74995;SDS011;63545;51.690;5.202;2023-04-25T06:18:53;13.10;;;2.70;;
74995;SDS011;63545;51.690;5.202;2023-04-25T06:21:19;14.13;;;2.93;;
74995;SDS011;63545;51.690;5.202;2023-04-25T06:23:44;13.00;;;2.90;;
74995;SDS011;63545;51.690;5.202;2023-04-25T06:26:10;12.30;;;2.73;;
74995;SDS011;63545;51.690;5.202;2023-04-25T06:28:35;15.07;;;2.70;;
74995;SDS011;63545;51.690;5.202;2023-04-25T06:31:00;12.10;;;2.72;;
74995;SDS011;63545;51.690;5.202;2023-04-25T06:33:26;10.23;;;2.67;;
74995;SDS011;63545;51.690;5.202;2023-04-25T06:35:51;10.53;;;2.13;;
74995;SDS011;63545;51.690;5.202;2023-04-25T06:38:17;16.58;;;2.88;;
74995;SDS011;63545;51.690;5.202;2023-04-25T06:40:43;7.20;;;2.13;;
74995;SDS011;63545;51.690;5.202;2023-04-25T06:43:08;8.97;;;2.10;;
74995;SDS011;63545;51.690;5.202;2023-04-25T06:45:33;8.20;;;2.43;;
74995;SDS011;63545;51.690;5.202;2023-04-25T06:47:59;9.87;;;2.10;;
74995;SDS011;63545;51.690;5.202;2023-04-25T06:50:24;10.93;;;3.00;;
74995;SDS011;63545;51.690;5.202;2023-04-25T06:52:50;7.73;;;2.30;;
74995;SDS011;63545;51.690;5.202;2023-04-25T06:55:15;11.80;;;2.27;;
74995;SDS011;63545;51.690;5.202;2023-04-25T06:57:40;8.77;;;1.98;;
74995;SDS011;63545;51.690;5.202;2023-04-25T07:00:06;7.73;;;2.27;;
74995;SDS011;63545;51.690;5.202;2023-04-25T07:02:34;9.95;;;2.58;;
74995;SDS011;63545;51.690;5.202;2023-04-25T07:05:00;9.13;;;2.27;;
74995;SDS011;63545;51.690;5.202;2023-04-25T07:07:26;9.93;;;2.07;;
74995;SDS011;63545;51.690;5.202;2023-04-25T07:09:51;10.52;;;2.65;;
74995;SDS011;63545;51.690;5.202;2023-04-25T07:12:17;9.93;;;2.30;;
74995;SDS011;63545;51.690;5.202;2023-04-25T07:14:42;10.17;;;2.20;;
74995;SDS011;63545;51.690;5.202;2023-04-25T07:17:07;11.00;;;2.40;;
74995;SDS011;63545;51.690;5.202;2023-04-25T07:19:33;10.02;;;2.40;;
74995;SDS011;63545;51.690;5.202;2023-04-25T07:21:58;10.70;;;2.47;;
74995;SDS011;63545;51.690;5.202;2023-04-25T07:24:24;7.50;;;2.10;;
74995;SDS011;63545;51.690;5.202;2023-04-25T07:26:49;11.30;;;2.20;;
74995;SDS011;63545;51.690;5.202;2023-04-25T07:29:14;8.57;;;2.03;;
74995;SDS011;63545;51.690;5.202;2023-04-25T07:31:40;8.57;;;2.00;;
74995;SDS011;63545;51.690;5.202;2023-04-25T07:34:06;10.35;;;2.10;;
74995;SDS011;63545;51.690;5.202;2023-04-25T07:36:32;11.30;;;2.20;;
74995;SDS011;63545;51.690;5.202;2023-04-25T07:38:57;8.60;;;2.40;;
74995;SDS011;63545;51.690;5.202;2023-04-25T07:41:22;10.30;;;1.63;;
74995;SDS011;63545;51.690;5.202;2023-04-25T07:43:48;16.80;;;1.93;;
74995;SDS011;63545;51.690;5.202;2023-04-25T07:46:13;9.50;;;2.00;;
74995;SDS011;63545;51.690;5.202;2023-04-25T07:48:38;11.48;;;2.53;;
74995;SDS011;63545;51.690;5.202;2023-04-25T07:51:04;6.77;;;1.60;;
74995;SDS011;63545;51.690;5.202;2023-04-25T07:53:30;7.73;;;2.23;;
74995;SDS011;63545;51.690;5.202;2023-04-25T07:55:56;9.77;;;1.90;;
74995;SDS011;63545;51.690;5.202;2023-04-25T07:58:21;6.47;;;1.50;;
74995;SDS011;63545;51.690;5.202;2023-04-25T08:00:47;8.33;;;2.00;;
74995;SDS011;63545;51.690;5.202;2023-04-25T08:03:13;5.97;;;1.80;;
74995;SDS011;63545;51.690;5.202;2023-04-25T08:05:38;7.23;;;1.97;;
74995;SDS011;63545;51.690;5.202;2023-04-25T08:08:04;10.00;;;1.80;;
74995;SDS011;63545;51.690;5.202;2023-04-25T08:10:31;9.02;;;1.88;;
74995;SDS011;63545;51.690;5.202;2023-04-25T08:12:56;9.97;;;1.30;;
74995;SDS011;63545;51.690;5.202;2023-04-25T08:15:22;6.87;;;1.60;;
74995;SDS011;63545;51.690;5.202;2023-04-25T08:17:47;15.77;;;1.63;;
74995;SDS011;63545;51.690;5.202;2023-04-25T08:20:12;7.13;;;1.53;;
74995;SDS011;63545;51.690;5.202;2023-04-25T08:22:38;6.07;;;1.60;;
74995;SDS011;63545;51.690;5.202;2023-04-25T08:25:03;11.93;;;2.27;;
74995;SDS011;63545;51.690;5.202;2023-04-25T08:27:29;7.40;;;1.83;;
74995;SDS011;63545;51.690;5.202;2023-04-25T08:29:55;7.65;;;1.67;;
74995;SDS011;63545;51.690;5.202;2023-04-25T08:32:20;10.03;;;2.23;;
74995;SDS011;63545;51.690;5.202;2023-04-25T08:34:46;10.27;;;2.08;;
74995;SDS011;63545;51.690;5.202;2023-04-25T08:37:12;8.73;;;2.00;;
74995;SDS011;63545;51.690;5.202;2023-04-25T08:39:37;12.73;;;1.90;;
74995;SDS011;63545;51.690;5.202;2023-04-25T08:42:04;11.40;;;2.70;;
74995;SDS011;63545;51.690;5.202;2023-04-25T08:44:33;6.60;;;1.55;;
74995;SDS011;63545;51.690;5.202;2023-04-25T08:46:59;11.50;;;2.05;;
74995;SDS011;63545;51.690;5.202;2023-04-25T08:49:27;12.87;;;2.20;;
74995;SDS011;63545;51.690;5.202;2023-04-25T08:51:53;9.88;;;1.70;;
74995;SDS011;63545;51.690;5.202;2023-04-25T08:54:21;8.20;;;1.80;;
74995;SDS011;63545;51.690;5.202;2023-04-25T08:56:51;12.05;;;2.13;;
74995;SDS011;63545;51.690;5.202;2023-04-25T08:59:16;10.73;;;2.33;;
74995;SDS011;63545;51.690;5.202;2023-04-25T09:01:42;10.73;;;1.70;;
74995;SDS011;63545;51.690;5.202;2023-04-25T09:04:08;8.70;;;1.95;;
74995;SDS011;63545;51.690;5.202;2023-04-25T09:06:33;10.33;;;2.10;;
74995;SDS011;63545;51.690;5.202;2023-04-25T09:09:06;10.13;;;2.22;;
74995;SDS011;63545;51.690;5.202;2023-04-25T09:11:33;9.73;;;1.93;;
74995;SDS011;63545;51.690;5.202;2023-04-25T09:14:10;11.05;;;1.88;;
74995;SDS011;63545;51.690;5.202;2023-04-25T09:16:42;9.15;;;2.08;;
74995;SDS011;63545;51.690;5.202;2023-04-25T09:19:22;8.40;;;2.00;;
